Time;durP1;ratioP1;P1;durP2;ratioP2;P2;SDS_P1;SDS_P2;PMS_P1;PMS_P2;Temp;Humidity;BMP_temperature;BMP_pressure;BME280_temperature;BME280_humidity;BME280_pressure;Samples;Min_cycle;Max_cycle;Signal;HPM_P1;HPM_P2
2021/12/06 00:01:38;;;;;;;71.73;34.00;;;;;;;7.85;100.00;98686.88;5070410;28;20196;-70
2021/12/06 00:04:10;;;;;;;58.40;30.77;;;;;;;7.84;100.00;98697.94;5069641;28;20207;-70
2021/12/06 00:06:41;;;;;;;63.47;32.30;;;;;;;7.83;100.00;98702.22;5068287;28;20203;-70
2021/12/06 00:09:11;;;;;;;62.63;33.67;;;;;;;7.87;100.00;98708.06;5069630;28;20199;-70
2021/12/06 00:11:39;;;;;;;57.87;30.43;;;;;;;7.89;100.00;98711.41;5070499;28;20210;-70
2021/12/06 00:14:06;;;;;;;66.33;32.60;;;;;;;7.89;100.00;98714.78;5070757;28;20192;-70
2021/12/06 00:16:33;;;;;;;60.27;31.53;;;;;;;7.95;100.00;98701.00;5071590;28;20203;-70
2021/12/06 00:19:00;;;;;;;62.50;31.97;;;;;;;7.95;100.00;98706.09;5074190;28;20204;-70
2021/12/06 00:21:28;;;;;;;57.83;32.10;;;;;;;7.98;100.00;98708.56;5074421;28;20656;-70
2021/12/06 00:23:57;;;;;;;57.57;30.93;;;;;;;7.99;100.00;98710.22;5074327;28;20195;-70
2021/12/06 00:26:24;;;;;;;54.40;29.53;;;;;;;7.94;100.00;98704.44;5074117;28;20202;-70
2021/12/06 00:28:56;;;;;;;54.33;29.83;;;;;;;8.03;100.00;98710.97;5074212;28;20204;-70
2021/12/06 00:31:24;;;;;;;47.73;28.23;;;;;;;8.01;100.00;98713.59;5074231;28;20242;-70
2021/12/06 00:33:58;;;;;;;50.47;26.70;;;;;;;8.01;100.00;98712.75;5073596;28;20711;-70
2021/12/06 00:36:28;;;;;;;54.00;28.03;;;;;;;7.98;100.00;98700.91;5071777;28;20624;-70
2021/12/06 00:38:57;;;;;;;50.90;26.97;;;;;;;7.99;100.00;98712.78;5072036;28;20216;-70
2021/12/06 00:41:24;;;;;;;46.87;27.40;;;;;;;8.02;100.00;98715.25;5070602;28;20204;-70
2021/12/06 00:43:52;;;;;;;46.90;26.67;;;;;;;8.03;100.00;98708.44;5069690;28;20222;-70
2021/12/06 00:46:19;;;;;;;47.10;26.33;;;;;;;8.06;100.00;98706.63;5071338;28;20204;-70
2021/12/06 00:48:47;;;;;;;60.67;30.87;;;;;;;7.97;100.00;98683.94;5069497;28;20253;-70
2021/12/06 00:51:15;;;;;;;93.33;46.23;;;;;;;8.04;100.00;98695.63;5072691;28;20192;-70
2021/12/06 00:53:42;;;;;;;68.07;35.17;;;;;;;8.02;100.00;98701.63;5072832;28;20197;-71
2021/12/06 00:56:11;;;;;;;62.80;32.30;;;;;;;8.05;100.00;98692.19;5072084;28;20571;-71
2021/12/06 00:58:38;;;;;;;49.17;28.07;;;;;;;8.06;100.00;98688.75;5071667;28;20204;-70
2021/12/06 01:01:06;;;;;;;50.43;26.83;;;;;;;8.03;100.00;98677.78;5071723;28;20192;-70
2021/12/06 01:03:36;;;;;;;42.53;24.60;;;;;;;8.07;100.00;98680.22;5071504;28;20197;-70
2021/12/06 01:06:04;;;;;;;50.63;26.07;;;;;;;8.10;100.00;98674.19;5071750;28;20223;-70
2021/12/06 01:08:32;;;;;;;42.77;25.47;;;;;;;8.13;100.00;98680.03;5072039;28;20200;-70
2021/12/06 01:10:59;;;;;;;46.97;24.47;;;;;;;8.04;100.00;98690.53;5073447;28;20200;-70
2021/12/06 01:13:28;;;;;;;43.63;23.40;;;;;;;8.06;100.00;98673.44;5073598;28;20215;-71
2021/12/06 01:15:55;;;;;;;50.97;27.10;;;;;;;8.09;100.00;98668.22;5073057;28;20192;-70
2021/12/06 01:18:23;;;;;;;43.83;24.37;;;;;;;8.14;100.00;98676.56;5073257;28;20200;-70
2021/12/06 01:20:55;;;;;;;53.70;24.90;;;;;;;8.19;100.00;98661.94;5072302;28;20564;-70
2021/12/06 01:23:28;;;;;;;46.43;22.53;;;;;;;8.04;100.00;98654.78;5073166;28;20599;-71
2021/12/06 01:26:11;;;;;;;43.37;22.53;;;;;;;8.06;100.00;98673.44;5072300;28;20212;-70
2021/12/06 01:29:06;;;;;;;45.47;23.13;;;;;;;8.11;100.00;98665.66;5072893;28;20204;-70
2021/12/06 01:31:42;;;;;;;50.43;23.47;;;;;;;8.06;100.00;98670.88;5071845;28;20200;-70
2021/12/06 01:39:09;;;;;;;55.03;22.47;;;;;;;8.16;100.00;98668.88;5071105;28;20253;-71
2021/12/06 01:39:45;;;;;;;49.53;23.93;;;;;;;8.20;100.00;98666.19;5072965;28;20225;-70
2021/12/06 01:42:12;;;;;;;49.60;24.23;;;;;;;7.83;100.00;98614.63;5072998;28;20196;-70
2021/12/06 01:44:42;;;;;;;48.00;23.27;;;;;;;8.10;100.00;98639.28;5071829;28;20226;-70
2021/12/06 01:47:12;;;;;;;46.80;24.37;;;;;;;8.23;100.00;98648.22;5072821;28;20192;-68
2021/12/06 01:49:42;;;;;;;49.87;23.77;;;;;;;8.21;100.00;98629.53;5072933;28;20244;-68
2021/12/06 01:52:16;;;;;;;46.63;22.77;;;;;;;8.26;100.00;98643.00;5072528;28;20200;-68
2021/12/06 01:54:43;;;;;;;40.30;23.33;;;;;;;8.24;100.00;98631.19;5072829;28;20192;-68
2021/12/06 01:57:11;;;;;;;39.90;21.90;;;;;;;8.23;100.00;98640.56;5072420;28;20682;-68
2021/12/06 01:59:38;;;;;;;53.90;24.13;;;;;;;8.19;100.00;98633.03;5072657;28;20204;-68
2021/12/06 02:02:08;;;;;;;48.40;23.43;;;;;;;8.34;100.00;98653.81;5071092;28;20667;-69
2021/12/06 02:04:37;;;;;;;49.40;25.00;;;;;;;8.27;100.00;98637.00;5072542;28;20212;-68
2021/12/06 02:07:06;;;;;;;51.07;25.10;;;;;;;8.30;100.00;98652.22;5072247;28;20203;-68
2021/12/06 02:09:34;;;;;;;55.03;25.13;;;;;;;8.36;100.00;98652.06;5072405;28;20258;-68
2021/12/06 02:12:03;;;;;;;49.80;24.07;;;;;;;8.40;100.00;98643.38;5072177;28;20200;-67
2021/12/06 02:14:38;;;;;;;50.17;25.67;;;;;;;8.43;100.00;98643.28;5072419;28;20196;-68
2021/12/06 02:17:15;;;;;;;48.77;25.50;;;;;;;8.51;100.00;98653.25;5072311;28;20231;-68
2021/12/06 02:19:47;;;;;;;54.27;27.23;;;;;;;8.52;100.00;98641.31;5069569;28;20690;-69
2021/12/06 02:22:18;;;;;;;64.80;26.97;;;;;;;8.33;100.00;98626.63;5071928;28;20203;-68
2021/12/06 02:24:46;;;;;;;68.93;28.50;;;;;;;8.39;100.00;98625.59;5071980;28;20223;-68
2021/12/06 02:27:16;;;;;;;73.20;29.10;;;;;;;8.32;100.00;98627.50;5072104;28;20203;-70
2021/12/06 02:29:45;;;;;;;71.00;26.80;;;;;;;8.34;100.00;98633.38;5071867;28;20207;-70
2021/12/06 02:32:13;;;;;;;70.93;27.47;;;;;;;8.44;100.00;98634.75;5070882;28;20203;-70
2021/12/06 02:34:43;;;;;;;66.30;24.73;;;;;;;8.39;100.00;98621.31;5071903;28;20196;-70
2021/12/06 02:37:11;;;;;;;66.40;25.83;;;;;;;8.38;100.00;98606.88;5069600;28;20223;-70
2021/12/06 02:39:40;;;;;;;71.03;24.20;;;;;;;8.31;100.00;98602.84;5069179;28;20208;-70
2021/12/06 02:42:09;;;;;;;69.70;24.93;;;;;;;8.37;100.00;98609.47;5069292;28;20318;-70
2021/12/06 02:44:36;;;;;;;69.13;26.60;;;;;;;8.43;100.00;98596.50;5069676;28;20210;-70
2021/12/06 02:47:03;;;;;;;71.83;25.53;;;;;;;8.44;100.00;98598.16;5070213;28;20690;-70
2021/12/06 02:49:30;;;;;;;83.77;28.53;;;;;;;8.44;100.00;98606.66;5069967;28;20675;-69
2021/12/06 02:51:57;;;;;;;77.47;25.67;;;;;;;8.53;100.00;98602.13;5069978;28;20198;-70
2021/12/06 02:54:25;;;;;;;64.17;25.17;;;;;;;8.32;100.00;98599.41;5069880;28;20211;-70
2021/12/06 02:57:06;;;;;;;66.50;26.40;;;;;;;8.46;100.00;98634.72;5072157;28;20233;-69
2021/12/06 02:59:33;;;;;;;72.37;24.93;;;;;;;8.50;100.00;98630.34;5068089;28;20283;-70
2021/12/06 03:02:04;;;;;;;81.17;27.43;;;;;;;8.47;100.00;98617.63;5069860;28;20188;-70
2021/12/06 03:04:31;;;;;;;94.60;29.40;;;;;;;8.51;100.00;98630.25;5068790;28;20210;-69
2021/12/06 03:06:59;;;;;;;96.20;28.83;;;;;;;8.59;100.00;98632.56;5069469;28;20195;-70
2021/12/06 03:09:29;;;;;;;106.00;30.63;;;;;;;8.38;100.00;98603.47;5069266;28;20196;-69
2021/12/06 03:12:00;;;;;;;102.37;34.03;;;;;;;8.51;100.00;98626.88;5070716;28;20668;-69
2021/12/06 03:14:34;;;;;;;102.03;33.83;;;;;;;8.56;100.00;98627.56;5070929;28;20198;-69
2021/12/06 03:17:05;;;;;;;67.20;25.27;;;;;;;8.57;100.00;98619.00;5071009;28;20192;-70
2021/12/06 03:19:32;;;;;;;81.03;25.10;;;;;;;8.56;100.00;98622.47;5071036;28;20208;-69
2021/12/06 03:21:59;;;;;;;60.03;22.83;;;;;;;8.58;100.00;98646.22;5071814;28;20687;-69
2021/12/06 03:24:26;;;;;;;59.10;22.80;;;;;;;8.54;100.00;98622.50;5070125;28;20557;-70
2021/12/06 03:26:53;;;;;;;47.60;21.10;;;;;;;8.34;100.00;98592.53;5069144;28;20219;-69
2021/12/06 03:29:22;;;;;;;56.80;22.27;;;;;;;8.52;100.00;98626.00;5071186;28;20192;-69
2021/12/06 03:31:50;;;;;;;55.23;22.53;;;;;;;8.44;100.00;98599.00;5070797;28;20692;-70
2021/12/06 03:34:19;;;;;;;60.40;23.37;;;;;;;8.42;100.00;98633.13;5071214;28;20200;-69
2021/12/06 03:36:47;;;;;;;56.73;23.97;;;;;;;8.42;100.00;98626.31;5071234;28;20576;-69
2021/12/06 03:39:20;;;;;;;72.33;25.40;;;;;;;8.27;100.00;98608.09;5069553;28;20202;-70
2021/12/06 03:41:48;;;;;;;78.93;23.87;;;;;;;8.30;100.00;98610.56;5070234;28;20290;-69
2021/12/06 03:44:15;;;;;;;72.67;23.87;;;;;;;8.37;100.00;98606.91;5071120;28;20602;-70
2021/12/06 03:46:43;;;;;;;81.93;24.60;;;;;;;8.29;100.00;98604.63;5070948;28;20219;-69
2021/12/06 03:49:12;;;;;;;91.07;26.50;;;;;;;8.33;100.00;98611.31;5069712;28;20215;-70
2021/12/06 03:51:39;;;;;;;103.87;30.47;;;;;;;8.38;100.00;98618.78;5070991;28;20668;-69
2021/12/06 03:54:08;;;;;;;90.43;28.93;;;;;;;8.43;100.00;98620.31;5070549;28;20200;-70
2021/12/06 03:56:38;;;;;;;103.23;31.60;;;;;;;8.50;100.00;98630.34;5070748;28;20196;-70
2021/12/06 03:59:05;;;;;;;113.77;34.53;;;;;;;8.47;100.00;98612.53;5070581;28;20207;-69
2021/12/06 04:01:32;;;;;;;127.87;35.87;;;;;;;8.54;100.00;98619.09;5070666;28;20196;-70
2021/12/06 04:04:01;;;;;;;125.10;34.50;;;;;;;8.41;100.00;98619.53;5070309;28;20695;-70
2021/12/06 04:06:28;;;;;;;109.47;33.83;;;;;;;8.34;100.00;98607.84;5069581;28;20569;-70
2021/12/06 04:08:55;;;;;;;118.03;31.47;;;;;;;8.49;100.00;98616.72;5070497;28;20196;-70
2021/12/06 04:11:22;;;;;;;99.13;28.37;;;;;;;8.47;100.00;98612.53;5070345;28;20219;-70
2021/12/06 04:13:49;;;;;;;124.67;29.10;;;;;;;8.39;100.00;98605.16;5071178;28;20584;-70
2021/12/06 04:16:17;;;;;;;96.97;28.03;;;;;;;8.52;100.00;98614.06;5070366;28;20660;-70
2021/12/06 04:18:45;;;;;;;83.57;25.50;;;;;;;8.42;100.00;98594.81;5070603;28;20196;-70
2021/12/06 04:21:14;;;;;;;81.73;26.83;;;;;;;8.43;100.00;98612.63;5067917;28;20234;-70
2021/12/06 04:23:41;;;;;;;99.10;27.43;;;;;;;8.42;100.00;98605.88;5070829;28;20660;-70
2021/12/06 04:26:08;;;;;;;91.70;27.50;;;;;;;8.54;100.00;98608.88;5070272;28;20214;-69
2021/12/06 04:28:35;;;;;;;80.00;27.70;;;;;;;8.47;100.00;98612.53;5070821;28;20283;-69
2021/12/06 04:31:04;;;;;;;65.13;26.37;;;;;;;8.55;100.00;98615.66;5070701;28;20204;-69
2021/12/06 04:33:31;;;;;;;68.77;24.20;;;;;;;8.60;100.00;98614.63;5070163;28;20208;-69
2021/12/06 04:35:58;;;;;;;67.43;24.93;;;;;;;8.62;100.00;98612.03;5070807;28;20572;-69
2021/12/06 04:38:26;;;;;;;78.87;25.50;;;;;;;8.63;100.00;98623.88;5069814;28;20234;-69
2021/12/06 04:40:53;;;;;;;52.43;22.40;;;;;;;8.70;100.00;98620.25;5069893;28;20204;-69
2021/12/06 04:43:20;;;;;;;59.67;23.27;;;;;;;8.71;100.00;98616.81;5070221;28;20192;-69
2021/12/06 04:45:47;;;;;;;54.20;21.43;;;;;;;8.70;100.00;98621.06;5069095;28;20216;-69
2021/12/06 04:48:13;;;;;;;58.07;23.10;;;;;;;8.71;100.00;98621.91;5069178;28;20206;-69
2021/12/06 04:50:42;;;;;;;52.97;22.73;;;;;;;8.67;100.00;98620.34;5068734;28;20207;-69
2021/12/06 04:53:13;;;;;;;47.83;23.80;;;;;;;8.67;100.00;98617.78;5069101;28;20675;-69
2021/12/06 04:55:44;;;;;;;63.10;23.97;;;;;;;8.67;100.00;98622.91;5069008;28;20211;-70
2021/12/06 04:58:17;;;;;;;71.17;26.70;;;;;;;8.53;100.00;98612.34;5068417;28;20196;-69
2021/12/06 05:00:48;;;;;;;66.27;27.33;;;;;;;8.51;100.00;98619.22;5069143;28;20664;-69
2021/12/06 05:03:18;;;;;;;69.80;25.93;;;;;;;8.51;100.00;98614.09;5072334;28;20681;-69
2021/12/06 05:05:51;;;;;;;71.47;25.87;;;;;;;8.52;100.00;98610.66;5071889;28;20219;-70
2021/12/06 05:08:22;;;;;;;83.57;26.97;;;;;;;8.46;100.00;98616.00;5072699;28;20202;-69
2021/12/06 05:10:52;;;;;;;82.80;27.57;;;;;;;8.48;100.00;98604.00;5072704;28;20215;-69
2021/12/06 05:13:19;;;;;;;75.63;26.87;;;;;;;8.50;100.00;98610.72;5072763;28;20694;-69
2021/12/06 05:15:46;;;;;;;77.37;29.90;;;;;;;8.39;100.00;98605.16;5072899;28;20196;-70
2021/12/06 05:18:13;;;;;;;85.60;28.83;;;;;;;8.36;100.00;98618.88;5073933;28;20211;-70
2021/12/06 05:20:40;;;;;;;68.73;25.57;;;;;;;8.44;100.00;98619.41;5073743;28;20576;-69
2021/12/06 05:23:09;;;;;;;64.07;25.87;;;;;;;8.37;100.00;98615.41;5073425;28;20200;-70
2021/12/06 05:25:37;;;;;;;56.90;26.57;;;;;;;8.41;100.00;98619.53;5072028;28;20216;-69
2021/12/06 05:28:05;;;;;;;73.63;27.50;;;;;;;8.46;100.00;98626.22;5073441;28;20200;-70
2021/12/06 05:30:34;;;;;;;64.63;29.43;;;;;;;8.41;100.00;98619.53;5073068;28;20279;-70
2021/12/06 05:33:02;;;;;;;59.17;24.77;;;;;;;8.43;100.00;98647.59;5072182;28;20720;-69
2021/12/06 05:35:29;;;;;;;63.77;25.90;;;;;;;8.51;100.00;98640.47;5073194;28;20196;-69
2021/12/06 05:37:58;;;;;;;60.40;26.20;;;;;;;8.54;100.00;98631.88;5072928;28;20230;-70
2021/12/06 05:40:29;;;;;;;53.87;26.70;;;;;;;8.52;100.00;98631.09;5073454;28;20218;-69
2021/12/06 05:42:57;;;;;;;50.60;27.33;;;;;;;8.51;100.00;98629.44;5071896;28;20203;-70
2021/12/06 05:45:28;;;;;;;34.17;19.07;;;;;;;8.34;100.00;98625.72;5073036;28;20200;-70
2021/12/06 05:47:56;;;;;;;41.50;19.97;;;;;;;8.42;100.00;98631.44;5071565;28;20286;-70
2021/12/06 05:50:24;;;;;;;33.53;17.50;;;;;;;8.47;100.00;98638.91;5073236;28;20214;-70
2021/12/06 05:52:54;;;;;;;36.23;18.13;;;;;;;8.47;100.00;98635.53;5072690;28;20202;-69
2021/12/06 05:55:22;;;;;;;31.30;17.23;;;;;;;8.46;100.00;98636.44;5072911;28;20250;-70
2021/12/06 05:57:49;;;;;;;34.47;18.43;;;;;;;8.46;100.00;98638.97;5071419;28;20668;-70
2021/12/06 06:00:20;;;;;;;29.03;18.53;;;;;;;8.42;100.00;98646.75;5072616;28;20571;-69
2021/12/06 06:02:48;;;;;;;28.93;19.43;;;;;;;8.37;100.00;98632.44;5072339;28;20639;-71
2021/12/06 06:05:18;;;;;;;38.73;19.37;;;;;;;8.36;100.00;98635.91;5072500;28;20196;-69
2021/12/06 06:07:45;;;;;;;36.00;19.83;;;;;;;8.41;100.00;98636.56;5072132;28;20269;-69
2021/12/06 06:10:12;;;;;;;45.93;22.70;;;;;;;8.37;100.00;98642.66;5071936;28;20200;-70
2021/12/06 06:12:39;;;;;;;44.83;22.20;;;;;;;8.38;100.00;98650.28;5072315;28;20291;-69
2021/12/06 06:15:07;;;;;;;38.00;21.90;;;;;;;8.44;100.00;98647.53;5072815;28;20196;-69
2021/12/06 06:17:40;;;;;;;30.77;19.93;;;;;;;8.51;100.00;98660.06;5072051;28;20196;-69
2021/12/06 06:20:12;;;;;;;40.67;21.80;;;;;;;8.56;100.00;98668.44;5072549;28;20597;-67
2021/12/06 06:22:39;;;;;;;37.47;19.37;;;;;;;8.62;100.00;98673.34;5071799;28;20195;-67
2021/12/06 06:25:06;;;;;;;35.97;20.17;;;;;;;8.69;100.00;98664.59;5071694;28;20207;-68
2021/12/06 06:27:33;;;;;;;52.57;28.73;;;;;;;8.64;100.00;98661.34;5072017;28;20378;-68
2021/12/06 06:30:00;;;;;;;63.70;33.00;;;;;;;8.67;100.00;98661.22;5071611;28;20192;-67
2021/12/06 06:32:27;;;;;;;54.67;29.40;;;;;;;8.71;100.00;98655.13;5070112;28;20200;-68
2021/12/06 06:34:54;;;;;;;48.27;27.73;;;;;;;8.69;100.00;98642.41;5071132;28;20206;-68
2021/12/06 06:37:22;;;;;;;40.37;23.83;;;;;;;8.81;100.00;98648.81;5071602;28;20235;-68
2021/12/06 06:39:50;;;;;;;39.73;21.93;;;;;;;8.80;100.00;98650.53;5071573;28;20210;-68
2021/12/06 06:42:16;;;;;;;40.80;20.87;;;;;;;8.71;100.00;98652.56;5071306;28;20199;-68
2021/12/06 06:44:43;;;;;;;36.43;20.27;;;;;;;8.66;100.00;98649.34;5071444;28;20219;-67
2021/12/06 06:47:10;;;;;;;42.77;23.03;;;;;;;8.62;100.00;98658.00;5070974;28;20604;-68
2021/12/06 06:49:37;;;;;;;39.63;22.13;;;;;;;8.68;100.00;98657.78;5071412;28;20204;-68
2021/12/06 06:52:05;;;;;;;43.20;21.07;;;;;;;8.71;100.00;98655.13;5071189;28;20200;-68
2021/12/06 06:54:33;;;;;;;42.70;21.00;;;;;;;8.66;100.00;98649.34;5071324;28;20691;-68
2021/12/06 06:57:00;;;;;;;35.93;19.10;;;;;;;8.56;100.00;98642.91;5070610;28;20192;-67
2021/12/06 06:59:27;;;;;;;31.83;19.00;;;;;;;8.55;100.00;98642.06;5071150;28;20192;-68
2021/12/06 07:01:54;;;;;;;37.10;20.07;;;;;;;8.67;100.00;98646.72;5071753;28;20670;-68
2021/12/06 07:04:21;;;;;;;41.83;20.00;;;;;;;8.70;100.00;98635.56;5070727;28;20622;-68
2021/12/06 07:06:49;;;;;;;34.67;19.80;;;;;;;8.73;100.00;98631.19;5071295;28;20223;-67
2021/12/06 07:09:16;;;;;;;31.13;19.07;;;;;;;8.72;100.00;98636.38;5070487;28;20287;-68
2021/12/06 07:11:46;;;;;;;39.33;19.90;;;;;;;8.71;100.00;98640.66;5068869;28;20577;-71
2021/12/06 07:14:14;;;;;;;39.10;21.42;;;;;;;8.77;100.00;98640.44;5070404;28;20480;-74
2021/12/06 07:16:41;;;;;;;67.97;38.35;;;;;;;8.86;100.00;98641.81;5069511;28;20870;-71
2021/12/06 07:19:09;;;;;;;55.43;29.07;;;;;;;8.99;100.00;98653.28;5069838;28;20211;-72
2021/12/06 07:21:36;;;;;;;42.00;23.83;;;;;;;9.05;100.00;98637.72;5070738;28;20203;-71
2021/12/06 07:24:04;;;;;;;36.93;21.37;;;;;;;8.94;100.00;98632.16;5070807;28;20716;-72
2021/12/06 07:26:32;;;;;;;28.73;18.00;;;;;;;8.94;100.00;98634.72;5069083;28;20302;-71
2021/12/06 07:29:01;;;;;;;29.53;17.17;;;;;;;8.96;100.00;98638.03;5070905;28;20210;-71
2021/12/06 07:31:28;;;;;;;30.43;19.07;;;;;;;8.94;100.00;98642.38;5069068;28;20204;-72
2021/12/06 07:33:55;;;;;;;25.93;16.27;;;;;;;8.96;100.00;98649.09;5071056;28;20660;-72
2021/12/06 07:36:25;;;;;;;32.17;17.03;;;;;;;8.89;100.00;98627.22;5070646;28;20202;-71
2021/12/06 07:38:52;;;;;;;37.87;22.10;;;;;;;8.95;100.00;98637.22;5070655;28;20222;-71
2021/12/06 07:41:21;;;;;;;53.37;30.67;;;;;;;8.97;100.00;98639.72;5070875;28;20200;-72
2021/12/06 07:43:48;;;;;;;39.47;22.00;;;;;;;9.03;100.00;98644.59;5070661;28;20235;-71
2021/12/06 07:46:16;;;;;;;38.60;18.83;;;;;;;9.05;100.00;98645.38;5070542;28;20230;-72
2021/12/06 14:25:22;;;;;;;53.43;25.00;;;;;;;11.26;100.00;98315.69;5064300;27;21097;-64
2021/12/06 14:27:50;;;;;;;55.70;25.13;;;;;;;11.29;100.00;98327.53;5065004;28;20728;-64
2021/12/06 14:30:20;;;;;;;51.13;23.17;;;;;;;11.24;100.00;98322.63;5065266;28;20212;-64
2021/12/06 14:32:49;;;;;;;49.07;22.83;;;;;;;11.23;100.00;98320.97;5065599;28;20212;-64
2021/12/06 14:35:16;;;;;;;59.27;24.47;;;;;;;11.23;100.00;98318.41;5065612;28;20207;-64
2021/12/06 14:37:43;;;;;;;51.50;25.40;;;;;;;11.16;100.00;98327.31;5065839;28;20394;-64
2021/12/06 14:40:13;;;;;;;59.60;25.53;;;;;;;11.14;100.00;98326.56;5065632;28;20200;-64
2021/12/06 14:42:42;;;;;;;63.97;26.17;;;;;;;11.14;100.00;98306.03;5065455;28;20208;-64
2021/12/06 14:45:12;;;;;;;60.90;25.73;;;;;;;11.15;100.00;98306.88;5065114;28;20602;-65
2021/12/06 14:47:43;;;;;;;65.73;27.83;;;;;;;11.12;100.00;98318.09;5064875;28;20287;-64
2021/12/06 14:50:17;;;;;;;67.47;29.30;;;;;;;11.13;100.00;98309.50;5064351;28;20205;-65
2021/12/06 14:52:46;;;;;;;65.47;27.97;;;;;;;11.12;100.00;98307.84;5064862;28;20699;-64
2021/12/06 14:55:44;;;;;;;63.50;29.50;;;;;;;11.05;100.00;98312.44;5063757;28;20207;-65
2021/12/06 14:58:16;;;;;;;64.83;29.43;;;;;;;10.94;100.00;98308.75;5063644;28;20291;-64
2021/12/06 15:00:45;;;;;;;75.57;31.47;;;;;;;10.90;100.00;98323.47;5062206;28;20212;-65
2021/12/06 15:03:14;;;;;;;71.50;32.63;;;;;;;10.78;100.00;98328.34;5062771;28;20664;-65
2021/12/06 15:05:47;;;;;;;70.43;30.03;;;;;;;10.78;100.00;98328.34;5061627;28;20204;-65
2021/12/06 15:08:18;;;;;;;74.67;32.03;;;;;;;10.70;100.00;98326.13;5063475;28;20200;-65
2021/12/06 15:10:49;;;;;;;64.07;30.07;;;;;;;10.63;100.00;98339.34;5065163;28;20200;-65
2021/12/06 15:13:21;;;;;;;66.93;29.70;;;;;;;10.53;100.00;98337.19;5065094;28;20228;-65
2021/12/06 15:15:51;;;;;;;72.33;31.73;;;;;;;10.48;100.00;98331.47;5063819;28;20270;-65
2021/12/06 15:18:22;;;;;;;66.50;29.33;;;;;;;10.47;100.00;98327.22;5062496;28;20222;-66
2021/12/06 15:20:50;;;;;;;73.97;29.70;;;;;;;10.51;100.00;98315.94;5061089;28;20297;-66
2021/12/06 15:23:20;;;;;;;77.57;29.93;;;;;;;10.56;100.00;98328.53;5062234;28;20230;-66
2021/12/06 15:25:48;;;;;;;85.10;32.80;;;;;;;10.55;100.00;98329.44;5052044;28;20288;-66
2021/12/06 15:28:21;;;;;;;80.33;32.87;;;;;;;10.59;100.00;98333.53;5049284;28;20646;-66
2021/12/06 15:30:50;;;;;;;79.43;35.83;;;;;;;10.56;100.00;98325.16;5049227;28;20209;-67
2021/12/06 15:33:17;;;;;;;91.13;36.00;;;;;;;10.48;100.00;98312.69;5049943;28;20213;-66
2021/12/06 15:35:47;;;;;;;80.50;34.60;;;;;;;10.47;100.00;98329.78;5046115;28;20208;-66
2021/12/06 15:38:19;;;;;;;134.37;55.30;;;;;;;10.39;100.00;98331.06;5048415;28;20287;-67
2021/12/06 15:40:49;;;;;;;117.13;50.17;;;;;;;10.38;100.00;98302.03;5047191;28;20589;-66
2021/12/06 15:43:20;;;;;;;86.20;35.70;;;;;;;10.45;100.00;98305.16;5046966;28;20267;-66
2021/12/06 15:45:51;;;;;;;77.50;33.40;;;;;;;10.49;100.00;98301.53;5047940;28;20650;-66
2021/12/06 15:48:22;;;;;;;83.73;36.60;;;;;;;10.47;100.00;98293.91;5049460;28;20678;-66
2021/12/06 15:50:49;;;;;;;67.17;33.07;;;;;;;10.48;100.00;98300.72;5046239;28;20205;-66
2021/12/06 15:53:18;;;;;;;70.73;30.03;;;;;;;10.46;100.00;98297.41;5049368;28;20779;-66
2021/12/06 15:55:46;;;;;;;73.17;30.73;;;;;;;10.53;100.00;98303.06;5047480;28;20247;-66
2021/12/06 15:58:19;;;;;;;89.83;36.90;;;;;;;10.47;100.00;98299.03;5047194;28;20200;-67
2021/12/06 16:00:53;;;;;;;90.77;37.33;;;;;;;10.43;100.00;98295.00;5048112;28;20200;-66
2021/12/06 16:03:25;;;;;;;89.50;34.73;;;;;;;10.43;100.00;98300.09;5048819;28;20640;-66
2021/12/06 16:05:52;;;;;;;79.23;35.43;;;;;;;10.46;100.00;98301.69;5045623;28;20240;-66
2021/12/06 16:08:20;;;;;;;74.30;29.97;;;;;;;10.44;100.00;98294.06;5046262;28;20587;-66
2021/12/06 16:10:52;;;;;;;78.23;31.73;;;;;;;10.46;100.00;98297.41;5046245;28;20215;-66
2021/12/06 16:13:22;;;;;;;83.03;31.73;;;;;;;10.44;100.00;98300.91;5044230;28;20325;-66
2021/12/06 16:15:53;;;;;;;74.43;34.80;;;;;;;10.40;100.00;98282.28;5045476;28;20255;-67
2021/12/06 16:18:24;;;;;;;105.47;42.27;;;;;;;10.29;100.00;98294.78;5041782;28;20204;-67
2021/12/06 16:20:56;;;;;;;153.83;62.67;;;;;;;10.28;100.00;98297.41;5046234;28;20209;-66
2021/12/06 16:23:27;;;;;;;125.43;49.30;;;;;;;10.22;100.00;98297.69;5044004;28;20225;-66
2021/12/06 16:25:58;;;;;;;124.00;47.53;;;;;;;10.24;100.00;98291.59;5048229;28;20204;-67
2021/12/06 16:28:26;;;;;;;105.87;42.93;;;;;;;10.21;100.00;98286.63;5046742;28;20201;-66
2021/12/06 16:30:56;;;;;;;102.30;40.07;;;;;;;10.21;100.00;98291.75;5049005;28;20211;-67
2021/12/06 16:33:45;;;;;;;101.67;44.60;;;;;;;10.19;100.00;98298.69;5047046;28;20201;-67
2021/12/06 16:36:26;;;;;;;139.07;58.23;;;;;;;10.09;100.00;98297.41;5047987;28;20205;-67
2021/12/06 16:38:56;;;;;;;140.17;60.20;;;;;;;10.05;100.00;98301.00;5048877;28;20200;-67
2021/12/06 16:41:28;;;;;;;129.37;53.63;;;;;;;10.10;100.00;98314.44;5046491;28;20212;-67
2021/12/06 16:44:00;;;;;;;126.10;53.87;;;;;;;10.04;100.00;98319.84;5047827;28;20247;-66
2021/12/06 16:46:42;;;;;;;147.77;57.03;;;;;;;10.00;100.00;98324.25;5045733;28;20201;-66
2021/12/06 16:49:10;;;;;;;152.27;58.60;;;;;;;10.01;100.00;98315.69;5047994;28;20652;-67
2021/12/06 16:51:39;;;;;;;133.00;55.37;;;;;;;10.00;100.00;98297.81;5046279;28;20250;-68
2021/12/06 16:54:14;;;;;;;133.27;55.77;;;;;;;10.04;100.00;98304.47;5047556;28;20217;-67
2021/12/06 16:56:42;;;;;;;122.93;50.00;;;;;;;10.06;100.00;98309.50;5048366;28;20580;-67
2021/12/06 16:59:16;;;;;;;158.67;63.53;;;;;;;9.91;100.00;98311.88;5047786;28;20208;-67
2021/12/06 17:01:46;;;;;;;167.97;65.37;;;;;;;9.86;100.00;98310.41;5045748;28;20214;-66
2021/12/06 17:04:16;;;;;;;161.53;65.77;;;;;;;9.88;100.00;98299.22;5044798;28;20214;-67
2021/12/06 17:06:43;;;;;;;199.37;79.00;;;;;;;9.91;100.00;98299.09;5045714;28;20564;-66
2021/12/06 17:09:12;;;;;;;218.53;84.67;;;;;;;9.89;100.00;98289.78;5048000;28;20205;-66
2021/12/06 17:11:43;;;;;;;213.10;79.17;;;;;;;9.97;100.00;98292.84;5047712;28;20205;-67
2021/12/06 17:14:12;;;;;;;199.37;78.97;;;;;;;9.97;100.00;98287.72;5046055;28;20223;-67
2021/12/06 17:16:42;;;;;;;223.40;89.07;;;;;;;9.96;100.00;98286.06;5045774;28;20641;-67
2021/12/06 17:19:15;;;;;;;196.77;80.87;;;;;;;9.97;100.00;98297.97;5037207;28;20215;-67
2021/12/06 17:21:43;;;;;;;326.83;122.37;;;;;;;9.89;100.00;98302.59;5040620;28;20615;-67
2021/12/06 17:24:12;;;;;;;337.50;136.10;;;;;;;9.69;100.00;98298.38;5047609;28;20221;-67
2021/12/06 17:26:41;;;;;;;330.53;140.23;;;;;;;9.71;100.00;98282.94;5048255;28;20258;-67
2021/12/06 17:29:14;;;;;;;320.50;138.87;;;;;;;9.74;100.00;98290.47;5045905;28;20561;-67
2021/12/06 17:31:44;;;;;;;272.43;124.73;;;;;;;9.74;100.00;98291.31;5039675;28;20205;-67
2021/12/06 17:34:15;;;;;;;262.73;117.50;;;;;;;9.77;100.00;98287.78;5047467;28;20241;-66
2021/12/06 17:36:44;;;;;;;259.20;119.80;;;;;;;9.80;100.00;98287.66;5046715;28;20703;-67
2021/12/06 17:39:14;;;;;;;253.67;115.57;;;;;;;9.75;100.00;98269.94;5045796;28;20207;-67
2021/12/06 17:41:43;;;;;;;248.57;110.27;;;;;;;9.85;100.00;98288.28;5044750;28;20211;-67
2021/12/06 17:44:12;;;;;;;234.40;109.00;;;;;;;9.72;100.00;98297.41;5044518;28;20203;-67
2021/12/06 17:46:38;;;;;;;202.60;89.87;;;;;;;9.76;100.00;98288.66;5046166;28;20201;-67
2021/12/06 17:49:08;;;;;;;196.03;83.77;;;;;;;9.75;100.00;98292.16;5045351;28;20212;-67
2021/12/06 17:51:37;;;;;;;252.00;111.27;;;;;;;9.67;100.00;98301.88;5047047;28;20214;-66
2021/12/06 17:54:06;;;;;;;257.40;111.87;;;;;;;9.58;100.00;98289.50;5046112;28;20256;-67
2021/12/06 17:56:33;;;;;;;238.50;109.03;;;;;;;9.58;100.00;98274.97;5047022;28;20201;-67
2021/12/06 17:59:03;;;;;;;243.47;106.10;;;;;;;9.62;100.00;98285.91;5047515;28;20197;-67
2021/12/06 18:01:32;;;;;;;226.43;99.40;;;;;;;9.59;100.00;98280.94;5044548;28;20207;-68
2021/12/06 18:04:01;;;;;;;189.60;82.30;;;;;;;9.25;100.00;98267.03;5047493;28;20743;-67